• Join FlightAware (Why Join?)
  • Login
  • US Flag 
06:05PM EST


 

Airport Tracker/Info


-or-


 

Live Flight TrackerFlight Track Log ✈ NASA817 ✈ 28-Jun-2013 ✈ W291 - KPMD

Flight Track Log - Related Links

Times and Time Zones

All times are in EDT time to prevent confusion due to time zone crossing. See the NASA817 flight status page for this flight to view local times or setup timezone preferences in your user account.

Time Position Orientation Groundspeed Altitude Reporting Facility
EDT Latitude Longitude Course Direction KTS MPH feet Rate Location/Type
01:43AM 32.4386 -117.6472 12° North 457 526 25,000  Level Los Angeles Center
01:44AM 32.5675 -117.6158 12° North 463 533 25,000  Level Los Angeles Center
01:45AM 32.6911 -117.5819 13° North 457 526 25,000  Level Los Angeles Center
01:46AM 32.8175 -117.6019 352° North 469 540 25,000 -600 Level Los Angeles Center
01:47AM 32.9642 -117.6708 338° Northwest 472 543 23,900 -1,140 Descending Los Angeles Center
01:48AM 33.0736 -117.7636 325° Northwest 475 547 22,700 -960 Descending Los Angeles Center
01:49AM 33.1775 -117.8533 324° Northwest 466 536 22,000 -360 Descending Los Angeles Center
01:50AM 33.2778 -117.9350 326° Northwest 443 510 22,000  Level Los Angeles Center
01:51AM 33.3778 -118.0125 327° Northwest 431 496 22,000 -300 Level Los Angeles Center
01:52AM 33.4853 -118.0536 342° North 420 483 21,500 -900 Descending Los Angeles Center
01:53AM 33.6033 -118.0492 North 426 490 20,200 -780 Descending Los Angeles Center
01:54AM 33.7200 -118.0453 North 425 489 20,000 -120 Descending Los Angeles Center
01:55AM 33.8478 -118.0408 North 389 448 20,000  Level Los Angeles Center
01:56AM 33.9464 -118.0464 357° North 362 417 20,000 -60 Level Los Angeles Center
01:57AM 34.0667 -118.0461 360° North 363 418 19,900 -900 Descending Los Angeles Center
01:58AM 34.1664 -118.0497 358° North 359 413 18,200 -2,040 Descending Los Angeles Center
01:59AM 34.2656 -118.0497 360° North 358 412 15,800 -1,680 Descending Los Angeles Center
02:00AM 34.3636 -118.0517 359° North 353 406 14,900 -780 Descending Los Angeles Center
02:01AM 34.4528 -118.0536 359° North 294 338 14,300 -840 Descending Los Angeles Center
02:02AM 34.5303 -118.0528 North 278 320 13,200 -1,320 Descending Los Angeles Center
02:03AM 34.5914 -117.9958 37° Northeast 281 323 11,700 -1,200 Descending Los Angeles Center
02:04AM 34.6267 -117.9344 55° Northeast 277 319 10,800 -1,080 Descending Los Angeles Center
02:05AM 34.6736 -117.8569 54° Northeast 233 268 9,500 -1,620 Descending Los Angeles Center
02:06AM 34.7072 -117.7906 58° Northeast 231 266 7,600 -1,440 Descending Los Angeles Center
02:07AM 34.6728 -117.7483 135° Southeast 228 262 6,600 -660 Descending Los Angeles Center
02:08AM 34.6464 -117.8036 240° Southwest 203 234 6,300 -300 Descending Los Angeles Center
02:09AM 34.6436 -117.8606 267° West 182 209 6,000 -660 Descending Los Angeles Center
02:10AM 34.6397 -117.9194 265° West 161 185 5,000 -900 Descending Los Angeles Center
02:11AM 34.6383 -117.9658 268° West 149 171 4,200 -720 Descending Los Angeles Center
02:13AM 34.6358 -118.0122 266° West 142 163 3,500 -540 Descending Los Angeles Center
02:15AM 34.6308 -118.1028 266° West 121 139 2,600 -300 Descending Los Angeles Center
02:16AM 34.6317 -118.1061 287° West 50 58 2,600  Level Los Angeles Center
02:17AM 34.6333 -118.1078 321° Northwest 35 40 2,600  Level Los Angeles Center